Time;durP1;ratioP1;P1;durP2;ratioP2;P2;SDS_P1;SDS_P2;PMS_P1;PMS_P2;Temp;Humidity;BMP_temperature;BMP_pressure;BME280_temperature;BME280_humidity;BME280_pressure;Samples;Min_cycle;Max_cycle;Signal;HPM_P1;HPM_P2
2021/01/27 00:00:35;;;;;;;2.33;1.60;;;19.40;41.50;;;;;;5030476;28;20547;-68
2021/01/27 00:03:02;;;;;;;1.80;1.10;;;19.40;41.50;;;;;;5021980;28;20483;-68
2021/01/27 00:05:30;;;;;;;1.63;1.53;;;19.40;41.60;;;;;;5033248;28;20544;-68
2021/01/27 00:07:56;;;;;;;1.67;1.60;;;19.40;41.60;;;;;;5031782;28;20534;-68
2021/01/27 00:10:22;;;;;;;1.50;1.40;;;19.30;41.50;;;;;;5016453;28;20949;-68
2021/01/27 00:12:49;;;;;;;1.63;1.50;;;19.40;41.60;;;;;;5032651;28;20993;-68
2021/01/27 00:15:17;;;;;;;2.40;1.57;;;19.30;41.40;;;;;;5032705;28;20913;-68
2021/01/27 00:17:44;;;;;;;1.60;1.20;;;19.30;41.50;;;;;;5030585;28;20477;-68
2021/01/27 00:20:11;;;;;;;2.00;1.57;;;19.30;41.40;;;;;;5030132;28;20483;-68
2021/01/27 00:22:37;;;;;;;1.23;1.13;;;19.30;41.40;;;;;;5028079;28;20486;-68
2021/01/27 00:25:03;;;;;;;1.60;1.50;;;19.30;41.40;;;;;;5031872;28;20482;-67
2021/01/27 00:27:29;;;;;;;1.63;1.53;;;19.30;41.50;;;;;;5033776;28;20498;-67
2021/01/27 00:29:56;;;;;;;2.40;1.80;;;19.30;41.50;;;;;;5032065;28;20513;-69
2021/01/27 00:32:22;;;;;;;1.57;1.47;;;19.30;41.30;;;;;;5030637;28;20490;-68
2021/01/27 00:34:49;;;;;;;2.30;2.10;;;19.30;41.20;;;;;;5031658;28;20474;-68
2021/01/27 00:37:15;;;;;;;1.70;1.60;;;19.40;41.40;;;;;;5033379;28;20483;-69
2021/01/27 00:39:41;;;;;;;1.87;1.70;;;19.40;41.30;;;;;;5032731;28;21691;-68
2021/01/27 00:42:07;;;;;;;1.13;1.13;;;19.30;41.30;;;;;;5033862;28;20576;-68
2021/01/27 00:44:33;;;;;;;1.53;1.23;;;19.30;41.30;;;;;;5031390;28;20479;-67
2021/01/27 00:46:59;;;;;;;2.20;2.10;;;19.30;41.20;;;;;;5027404;28;20486;-67
2021/01/27 00:49:26;;;;;;;1.50;1.40;;;19.30;41.30;;;;;;5032772;28;20879;-68
2021/01/27 00:51:53;;;;;;;1.80;1.70;;;19.30;41.40;;;;;;5032271;28;20482;-67
2021/01/27 00:54:19;;;;;;;1.90;1.80;;;19.30;41.30;;;;;;5024528;28;20494;-67
2021/01/27 00:56:45;;;;;;;1.97;1.40;;;19.30;42.10;;;;;;5032672;28;20487;-67
2021/01/27 00:59:11;;;;;;;1.87;1.77;;;19.30;41.40;;;;;;5033181;28;20483;-67
2021/01/27 01:01:37;;;;;;;1.43;1.33;;;19.30;41.40;;;;;;5030566;28;20817;-69
2021/01/27 01:04:04;;;;;;;1.53;1.43;;;19.20;41.30;;;;;;5023239;28;20877;-67
2021/01/27 01:06:30;;;;;;;1.20;1.20;;;19.20;41.30;;;;;;5029375;28;20495;-67
2021/01/27 01:08:57;;;;;;;2.43;1.97;;;19.20;41.30;;;;;;5034024;28;20483;-67
2021/01/27 01:11:23;;;;;;;3.10;1.80;;;19.20;41.30;;;;;;5035697;28;20533;-67
2021/01/27 01:13:49;;;;;;;2.00;1.90;;;19.20;41.20;;;;;;5033680;28;21113;-68
2021/01/27 01:16:15;;;;;;;3.57;1.80;;;19.20;41.90;;;;;;5033480;28;21034;-68
2021/01/27 01:18:41;;;;;;;1.50;1.50;;;19.20;41.40;;;;;;5031943;28;21060;-67
2021/01/27 01:21:07;;;;;;;1.17;1.13;;;19.20;41.40;;;;;;5024065;28;20505;-67
2021/01/27 01:23:34;;;;;;;1.40;1.30;;;19.20;41.40;;;;;;5033191;28;20479;-67
2021/01/27 01:26:01;;;;;;;2.20;2.10;;;19.20;41.40;;;;;;5038303;28;20479;-68
2021/01/27 01:28:27;;;;;;;2.43;1.67;;;19.20;41.20;;;;;;5033257;28;20493;-67
2021/01/27 01:30:53;;;;;;;1.37;1.37;;;19.20;41.10;;;;;;5030360;28;20483;-67
2021/01/27 01:33:20;;;;;;;3.30;1.63;;;19.20;41.10;;;;;;5032924;28;20549;-67
2021/01/27 01:35:46;;;;;;;1.73;1.63;;;19.30;41.10;;;;;;5028911;28;20471;-67
2021/01/27 01:38:13;;;;;;;1.87;1.77;;;19.30;41.10;;;;;;5033063;28;20478;-68
2021/01/27 01:40:40;;;;;;;3.10;1.60;;;19.20;41.00;;;;;;5029600;28;20483;-67
2021/01/27 01:43:09;;;;;;;2.40;1.47;;;19.30;41.10;;;;;;5018192;28;20473;-68
2021/01/27 01:45:37;;;;;;;1.90;1.80;;;19.20;41.10;;;;;;5034634;28;20862;-68
2021/01/27 01:48:10;;;;;;;2.20;2.00;;;19.20;41.10;;;;;;5036212;28;20517;-67
2021/01/27 01:50:36;;;;;;;1.53;1.43;;;19.20;41.00;;;;;;5035710;28;20475;-67
2021/01/27 01:53:02;;;;;;;3.40;1.80;;;19.20;41.00;;;;;;5032098;28;20491;-67
2021/01/27 01:55:28;;;;;;;6.10;1.40;;;19.20;41.00;;;;;;5022208;28;20487;-67
2021/01/27 01:57:54;;;;;;;2.33;2.23;;;19.30;41.00;;;;;;5030985;28;21549;-68
2021/01/27 02:00:22;;;;;;;1.87;1.80;;;19.30;41.00;;;;;;5032755;28;20502;-67
2021/01/27 02:02:49;;;;;;;1.90;1.47;;;19.30;41.10;;;;;;5033424;28;20478;-67
2021/01/27 02:05:17;;;;;;;1.50;1.50;;;19.30;40.80;;;;;;5033770;28;20489;-68
2021/01/27 02:07:43;;;;;;;2.10;1.93;;;19.30;41.70;;;;;;5029793;28;20483;-67
2021/01/27 02:10:10;;;;;;;1.50;1.40;;;19.30;41.00;;;;;;5022875;28;20467;-68
2021/01/27 02:12:57;;;;;;;1.90;1.80;;;19.30;41.10;;;;;;5020604;28;20483;-68
2021/01/27 02:15:40;;;;;;;2.20;1.73;;;19.20;40.90;;;;;;5035818;28;20490;-67
2021/01/27 02:18:10;;;;;;;2.77;1.80;;;19.20;41.00;;;;;;5027787;28;20471;-67
2021/01/27 02:21:12;;;;;;;4.40;2.10;;;19.20;41.00;;;;;;5031498;28;20482;-67
2021/01/27 02:24:01;;;;;;;2.77;2.00;;;19.20;41.00;;;;;;5031855;28;20486;-68
2021/01/27 02:27:05;;;;;;;2.00;1.90;;;19.20;41.10;;;;;;5029948;28;21171;-68
2021/01/27 02:29:39;;;;;;;2.30;1.70;;;19.20;41.00;;;;;;4928340;28;20484;-68
2021/01/27 02:32:32;;;;;;;2.73;1.30;;;19.20;41.10;;;;;;4943049;28;20476;-67
2021/01/27 02:35:10;;;;;;;2.60;1.90;;;19.20;40.90;;;;;;5011361;28;20483;-67
2021/01/27 02:37:38;;;;;;;1.97;1.87;;;19.20;40.90;;;;;;5030427;28;21002;-67
2021/01/27 02:40:08;;;;;;;3.17;2.93;;;19.20;40.80;;;;;;5031251;28;20903;-66
2021/01/27 02:42:36;;;;;;;1.57;1.50;;;19.20;41.70;;;;;;5019175;28;21064;-67
2021/01/27 02:45:07;;;;;;;2.03;1.63;;;19.20;40.80;;;;;;5030662;28;20582;-68
2021/01/27 02:47:37;;;;;;;1.87;1.77;;;19.20;40.80;;;;;;5022092;28;20485;-67
2021/01/27 02:50:04;;;;;;;2.00;1.90;;;19.20;40.90;;;;;;5036613;28;20495;-68
2021/01/27 02:52:33;;;;;;;2.00;1.80;;;19.20;40.90;;;;;;5034814;28;20490;-68
2021/01/27 02:55:06;;;;;;;2.10;1.50;;;19.20;41.00;;;;;;5036548;28;20994;-67
2021/01/27 02:57:34;;;;;;;2.10;1.97;;;19.20;41.00;;;;;;5031245;28;20498;-69
2021/01/27 03:00:01;;;;;;;2.23;2.13;;;19.20;41.00;;;;;;5032433;28;21655;-69
2021/01/27 03:02:39;;;;;;;1.80;1.70;;;19.20;41.00;;;;;;5035628;28;20539;-68
2021/01/27 03:05:07;;;;;;;1.80;1.70;;;19.10;40.90;;;;;;5037308;28;20489;-68
2021/01/27 03:07:35;;;;;;;2.33;1.93;;;19.10;41.00;;;;;;5033481;28;21981;-67
2021/01/27 03:10:05;;;;;;;1.97;1.87;;;19.10;41.00;;;;;;5035233;28;20521;-67
2021/01/27 03:12:31;;;;;;;1.90;1.70;;;19.10;41.00;;;;;;5034972;28;20502;-68
2021/01/27 03:14:57;;;;;;;2.10;2.00;;;19.10;41.00;;;;;;5036681;28;20540;-68
2021/01/27 03:17:23;;;;;;;2.60;1.77;;;19.10;40.90;;;;;;5034726;28;21006;-66
2021/01/27 03:19:53;;;;;;;1.93;1.83;;;19.10;41.00;;;;;;5027578;28;21234;-69
2021/01/27 03:22:20;;;;;;;3.40;2.10;;;19.10;41.00;;;;;;5034723;28;20493;-68
2021/01/27 03:24:54;;;;;;;2.20;2.10;;;19.10;40.80;;;;;;5034760;28;20499;-69
2021/01/27 03:27:21;;;;;;;1.60;1.50;;;19.10;40.90;;;;;;5025372;28;20494;-69
2021/01/27 03:29:49;;;;;;;2.40;1.37;;;19.10;40.90;;;;;;5030188;28;20487;-68
2021/01/27 03:32:19;;;;;;;2.53;2.43;;;19.10;40.80;;;;;;5022967;28;20495;-70
2021/01/27 03:34:48;;;;;;;2.33;2.13;;;19.10;40.70;;;;;;5030654;28;20487;-69
2021/01/27 03:37:15;;;;;;;1.63;1.53;;;19.10;40.80;;;;;;5037259;28;20839;-68
2021/01/27 03:39:42;;;;;;;2.20;2.00;;;19.10;40.80;;;;;;5038068;28;20859;-68
2021/01/27 03:42:12;;;;;;;1.70;1.60;;;19.10;40.80;;;;;;5037852;28;20487;-68
2021/01/27 03:44:39;;;;;;;1.60;1.50;;;19.10;40.80;;;;;;5033928;28;20483;-69
2021/01/27 03:47:08;;;;;;;4.13;1.80;;;19.10;40.90;;;;;;5035740;28;20486;-68
2021/01/27 03:49:36;;;;;;;1.40;1.40;;;19.10;40.80;;;;;;5029786;28;20482;-68
2021/01/27 03:52:04;;;;;;;2.07;1.93;;;19.10;40.90;;;;;;5031919;28;20483;-68
2021/01/27 03:54:30;;;;;;;2.10;1.93;;;19.10;40.80;;;;;;5028000;28;21179;-69
2021/01/27 03:57:00;;;;;;;2.00;1.90;;;19.10;40.90;;;;;;5032652;28;20479;-69
2021/01/27 03:59:27;;;;;;;4.10;1.57;;;19.10;40.80;;;;;;5033270;28;20478;-69
2021/01/27 04:01:54;;;;;;;2.20;2.00;;;19.00;40.60;;;;;;5042540;28;20482;-69
2021/01/27 04:04:21;;;;;;;1.67;1.60;;;19.00;40.60;;;;;;5034398;28;20491;-69
2021/01/27 04:06:47;;;;;;;3.53;2.30;;;19.00;40.80;;;;;;5037622;28;21991;-68
2021/01/27 04:09:13;;;;;;;2.47;2.27;;;19.00;40.80;;;;;;5036178;28;20479;-68
2021/01/27 04:11:40;;;;;;;2.30;2.07;;;18.90;40.60;;;;;;5031262;28;20923;-69
2021/01/27 04:14:06;;;;;;;1.97;1.40;;;18.90;40.20;;;;;;5033857;28;20494;-68
2021/01/27 04:16:33;;;;;;;2.07;1.87;;;18.90;40.10;;;;;;5025122;28;20479;-69
2021/01/27 04:18:59;;;;;;;3.13;2.30;;;18.90;40.00;;;;;;5032610;28;21062;-69
2021/01/27 04:21:25;;;;;;;2.30;2.10;;;18.90;40.20;;;;;;5029561;28;20986;-69
2021/01/27 04:23:52;;;;;;;1.97;1.50;;;18.90;40.10;;;;;;5034476;28;21280;-69
2021/01/27 04:26:20;;;;;;;2.40;2.20;;;19.00;40.10;;;;;;5023793;28;20988;-68
2021/01/27 04:28:47;;;;;;;2.20;1.70;;;19.10;39.90;;;;;;5036146;28;20482;-69
2021/01/27 04:31:13;;;;;;;2.03;1.90;;;19.20;39.80;;;;;;5037414;28;20836;-69
2021/01/27 04:33:40;;;;;;;1.80;1.70;;;19.20;39.60;;;;;;5032550;28;20487;-69
2021/01/27 04:36:07;;;;;;;1.73;1.67;;;19.20;39.60;;;;;;5031620;28;20467;-69
2021/01/27 04:38:33;;;;;;;2.73;2.53;;;19.20;39.80;;;;;;5029652;28;20494;-69
2021/01/27 04:40:59;;;;;;;1.90;1.70;;;19.10;39.80;;;;;;5024860;28;20858;-68
2021/01/27 04:43:29;;;;;;;5.43;2.07;;;19.20;40.10;;;;;;5029761;28;20478;-69
2021/01/27 04:45:59;;;;;;;2.40;2.20;;;19.10;39.80;;;;;;5031774;28;20486;-68
2021/01/27 04:48:40;;;;;;;1.83;1.73;;;19.10;39.90;;;;;;5033610;28;20493;-69
2021/01/27 04:51:08;;;;;;;2.03;1.93;;;19.00;40.10;;;;;;5032102;28;21194;-69
2021/01/27 04:53:41;;;;;;;2.37;2.20;;;19.00;40.30;;;;;;5022074;28;20529;-68
2021/01/27 04:56:29;;;;;;;2.40;2.20;;;19.00;40.30;;;;;;5037095;28;20559;-68
2021/01/27 04:59:00;;;;;;;2.27;2.10;;;19.00;40.50;;;;;;5034639;28;20479;-68
2021/01/27 05:01:55;;;;;;;2.37;2.17;;;19.00;40.30;;;;;;5006183;28;20494;-68
2021/01/27 05:04:34;;;;;;;2.60;2.40;;;19.00;40.20;;;;;;5030060;28;20495;-68
2021/01/27 05:07:04;;;;;;;6.20;2.47;;;19.00;40.00;;;;;;5031508;28;20486;-68
2021/01/27 05:09:31;;;;;;;2.23;1.73;;;19.00;40.80;;;;;;5031291;28;20487;-68
2021/01/27 05:11:58;;;;;;;10.63;2.10;;;19.00;39.90;;;;;;5033361;28;20833;-68
2021/01/27 05:14:24;;;;;;;2.27;2.17;;;19.10;40.10;;;;;;5029756;28;21093;-69
2021/01/27 05:16:51;;;;;;;2.30;2.20;;;19.10;39.80;;;;;;5035631;28;21026;-69
2021/01/27 05:19:17;;;;;;;2.30;2.10;;;19.10;39.70;;;;;;5034247;28;21077;-69
2021/01/27 05:21:45;;;;;;;2.33;2.20;;;19.20;39.80;;;;;;5037395;28;20513;-68
2021/01/27 05:24:12;;;;;;;2.33;2.13;;;19.10;39.80;;;;;;5031934;28;20520;-69
2021/01/27 05:26:40;;;;;;;2.47;2.37;;;19.10;39.80;;;;;;5041488;28;20489;-69
2021/01/27 05:29:08;;;;;;;2.30;2.10;;;19.10;39.80;;;;;;5018810;28;21003;-69
2021/01/27 05:31:57;;;;;;;2.60;2.40;;;19.10;39.80;;;;;;5015681;28;20501;-68
2021/01/27 05:34:27;;;;;;;3.17;2.97;;;19.10;39.60;;;;;;5036595;28;20498;-69
2021/01/27 05:36:53;;;;;;;5.60;3.30;;;19.20;39.50;;;;;;5037053;28;20467;-69
2021/01/27 05:39:23;;;;;;;2.53;2.13;;;19.20;39.20;;;;;;5033151;28;20489;-69
2021/01/27 05:41:49;;;;;;;1.50;1.50;;;19.30;39.40;;;;;;5034578;28;20509;-69
2021/01/27 05:44:16;;;;;;;2.60;1.80;;;19.30;39.30;;;;;;5032102;28;21159;-69
2021/01/27 05:46:42;;;;;;;2.10;2.00;;;19.30;39.30;;;;;;5031115;28;20983;-69
2021/01/27 05:49:11;;;;;;;2.53;1.73;;;19.30;39.30;;;;;;5031690;28;20468;-69
2021/01/27 05:51:38;;;;;;;1.73;1.63;;;19.30;39.40;;;;;;5031446;28;20490;-69
2021/01/27 05:54:20;;;;;;;1.73;1.63;;;19.30;39.50;;;;;;5032531;28;21537;-69
2021/01/27 05:56:46;;;;;;;2.60;2.40;;;19.30;39.50;;;;;;5029630;28;21610;-69
2021/01/27 05:59:19;;;;;;;2.00;1.90;;;19.30;39.40;;;;;;5033671;28;20470;-69
2021/01/27 06:01:46;;;;;;;1.97;1.87;;;19.30;39.50;;;;;;5031220;28;20834;-68
2021/01/27 06:04:18;;;;;;;3.73;2.23;;;19.30;39.40;;;;;;5021308;28;21538;-69
2021/01/27 06:06:55;;;;;;;2.50;2.30;;;19.30;39.60;;;;;;5020686;28;20990;-69
2021/01/27 06:09:31;;;;;;;3.63;3.30;;;19.30;39.40;;;;;;5030364;28;20854;-69
2021/01/27 06:11:59;;;;;;;2.93;2.67;;;19.30;39.30;;;;;;5031769;28;20483;-69
2021/01/27 06:14:25;;;;;;;5.00;3.00;;;19.30;39.20;;;;;;5031972;28;20863;-68
2021/01/27 06:16:52;;;;;;;3.67;3.37;;;19.30;39.50;;;;;;5023957;28;20477;-68
2021/01/27 06:19:18;;;;;;;4.40;4.10;;;19.30;39.30;;;;;;5028168;28;21590;-68
2021/01/27 06:22:03;;;;;;;3.40;3.03;;;19.30;39.40;;;;;;5025164;28;20498;-69
2021/01/27 06:24:35;;;;;;;3.07;2.87;;;19.30;39.40;;;;;;5029308;28;20549;-68
2021/01/27 06:27:19;;;;;;;4.97;4.40;;;19.40;39.50;;;;;;5029610;28;20475;-71
2021/01/27 06:30:11;;;;;;;4.07;3.60;;;19.40;39.40;;;;;;5013954;28;20870;-69
2021/01/27 06:32:53;;;;;;;3.57;3.27;;;19.30;39.30;;;;;;5030470;28;20491;-68
2021/01/27 06:35:30;;;;;;;4.57;4.20;;;19.30;39.30;;;;;;5029932;28;20481;-68
2021/01/27 06:38:17;;;;;;;5.27;3.70;;;19.30;39.30;;;;;;5031448;28;20481;-68
2021/01/27 06:40:55;;;;;;;4.83;3.23;;;19.30;38.90;;;;;;5007897;28;20483;-68
2021/01/27 06:43:41;;;;;;;3.00;2.90;;;19.40;39.10;;;;;;5020401;28;20478;-67
2021/01/27 06:46:18;;;;;;;3.23;3.00;;;19.30;39.10;;;;;;5030155;28;20866;-67
2021/01/27 06:49:07;;;;;;;2.43;2.07;;;19.30;39.10;;;;;;5019507;28;21529;-68
2021/01/27 06:51:40;;;;;;;3.63;3.33;;;19.30;39.60;;;;;;5028243;28;20503;-67
2021/01/27 06:54:36;;;;;;;2.47;2.30;;;19.30;39.60;;;;;;5031762;28;20491;-67
2021/01/27 06:57:09;;;;;;;4.03;2.93;;;19.40;39.70;;;;;;5032865;28;20481;-67
2021/01/27 07:00:03;;;;;;;4.63;3.73;;;19.40;39.70;;;;;;5033630;28;20494;-68
2021/01/27 07:02:53;;;;;;;3.30;3.10;;;19.30;39.60;;;;;;5026573;28;20997;-68
2021/01/27 07:05:26;;;;;;;3.67;3.37;;;19.40;39.50;;;;;;5015827;28;21378;-67
2021/01/27 07:08:02;;;;;;;3.03;2.93;;;19.40;39.40;;;;;;5019428;28;20495;-68
2021/01/27 07:10:46;;;;;;;3.23;3.03;;;19.30;39.60;;;;;;5019564;28;21007;-67
2021/01/27 07:13:32;;;;;;;3.20;2.90;;;19.30;39.70;;;;;;5030885;28;20470;-67
2021/01/27 07:15:59;;;;;;;4.60;3.60;;;19.30;39.80;;;;;;5029646;28;20474;-68
2021/01/27 07:18:58;;;;;;;3.97;3.40;;;19.30;39.70;;;;;;5032466;28;20580;-68
2021/01/27 07:21:26;;;;;;;3.90;3.70;;;19.20;39.90;;;;;;5021877;28;20504;-68
2021/01/27 07:23:57;;;;;;;6.60;3.93;;;19.20;39.60;;;;;;5024916;28;20486;-67
2021/01/27 07:26:24;;;;;;;3.60;3.30;;;19.20;39.70;;;;;;5029469;28;20470;-69
2021/01/27 07:28:56;;;;;;;3.70;3.40;;;19.20;39.80;;;;;;5031303;28;20537;-69
2021/01/27 07:31:25;;;;;;;3.67;3.37;;;19.20;39.80;;;;;;5030969;28;20478;-68
2021/01/27 07:33:54;;;;;;;3.43;3.17;;;19.20;39.80;;;;;;5033594;28;20501;-68
2021/01/27 07:36:43;;;;;;;5.23;3.83;;;19.20;39.50;;;;;;5023024;28;20487;-69
2021/01/27 07:39:13;;;;;;;2.90;2.80;;;19.30;39.50;;;;;;5033354;28;20502;-67
2021/01/27 07:41:44;;;;;;;2.60;2.40;;;19.30;39.40;;;;;;5031204;28;20494;-68
2021/01/27 07:44:13;;;;;;;4.73;2.30;;;19.30;39.40;;;;;;5033242;28;21417;-70
2021/01/27 07:46:40;;;;;;;2.20;2.07;;;19.30;39.60;;;;;;5028860;28;20485;-68
2021/01/27 07:49:06;;;;;;;2.50;2.40;;;19.30;39.50;;;;;;5036142;28;20487;-69
2021/01/27 07:51:44;;;;;;;2.07;1.97;;;19.30;39.60;;;;;;5033597;28;20519;-68
2021/01/27 07:54:11;;;;;;;6.17;2.90;;;19.30;39.70;;;;;;5024332;28;20486;-68
2021/01/27 07:56:41;;;;;;;2.60;2.00;;;19.30;39.60;;;;;;5033809;28;20499;-68
2021/01/27 07:59:10;;;;;;;3.50;1.70;;;19.30;39.80;;;;;;5036276;28;20479;-68
2021/01/27 08:01:40;;;;;;;2.97;2.77;;;19.30;39.80;;;;;;5029605;28;20486;-68
2021/01/27 08:04:09;;;;;;;2.93;2.40;;;19.30;39.90;;;;;;5035770;28;20544;-68
2021/01/27 08:06:40;;;;;;;2.40;2.30;;;19.30;40.10;;;;;;5030362;28;20501;-68
2021/01/27 08:09:07;;;;;;;2.57;2.40;;;19.20;39.90;;;;;;5032247;28;20491;-67
2021/01/27 08:11:34;;;;;;;2.00;1.90;;;19.30;40.10;;;;;;5029848;28;20486;-68
2021/01/27 08:14:00;;;;;;;2.00;1.90;;;19.30;40.00;;;;;;5027593;28;20910;-68
2021/01/27 08:16:32;;;;;;;2.53;2.43;;;19.30;39.90;;;;;;5034573;28;20569;-68
2021/01/27 08:19:23;;;;;;;4.10;2.13;;;19.30;39.80;;;;;;5035146;28;20483;-68
2021/01/27 08:21:57;;;;;;;2.50;2.30;;;19.30;39.80;;;;;;5013654;28;20844;-68
2021/01/27 08:24:51;;;;;;;2.50;2.07;;;19.30;40.20;;;;;;5023842;28;20479;-68
2021/01/27 08:27:31;;;;;;;2.20;2.10;;;19.30;40.20;;;;;;5038856;28;20482;-68
2021/01/27 08:30:28;;;;;;;2.20;2.00;;;19.30;40.10;;;;;;5052423;28;21096;-68
2021/01/27 08:33:36;;;;;;;2.00;1.90;;;19.30;40.10;;;;;;5056902;28;20485;-68
2021/01/27 08:36:05;;;;;;;2.07;1.97;;;19.30;40.00;;;;;;5040059;28;21253;-68
2021/01/27 08:38:32;;;;;;;2.07;1.87;;;19.30;40.10;;;;;;5042681;28;21494;-68
2021/01/27 08:40:59;;;;;;;2.40;2.20;;;19.30;40.80;;;;;;5064393;28;20474;-68
2021/01/27 08:43:26;;;;;;;2.00;1.90;;;19.30;40.10;;;;;;5044288;28;21204;-68
2021/01/27 08:45:52;;;;;;;2.63;2.50;;;19.30;40.00;;;;;;5065552;28;20882;-67
2021/01/27 08:48:47;;;;;;;3.40;2.50;;;19.30;39.80;;;;;;5054114;28;20853;-68
2021/01/27 08:51:47;;;;;;;4.13;2.30;;;19.40;39.80;;;;;;5050532;28;20477;-68
2021/01/27 08:54:50;;;;;;;2.67;2.50;;;19.40;39.70;;;;;;5052679;28;20477;-68
2021/01/27 08:57:25;;;;;;;2.67;2.47;;;19.50;39.70;;;;;;4999525;28;20594;-69
2021/01/27 09:00:08;;;;;;;2.50;2.30;;;19.40;39.60;;;;;;5050398;28;21024;-69
2021/01/27 09:02:51;;;;;;;4.13;2.67;;;19.40;39.70;;;;;;5053133;28;20493;-68
2021/01/27 09:05:44;;;;;;;2.80;2.60;;;19.40;39.70;;;;;;5026428;28;20540;-68
2021/01/27 09:08:29;;;;;;;2.20;2.10;;;19.40;39.70;;;;;;5053302;28;20477;-68
2021/01/27 09:10:57;;;;;;;2.60;2.50;;;19.40;39.70;;;;;;5057322;28;20469;-67
2021/01/27 09:13:35;;;;;;;2.17;1.97;;;19.40;40.00;;;;;;5051632;28;20504;-66
2021/01/27 09:16:02;;;;;;;1.83;1.83;;;19.40;40.00;;;;;;5041910;28;21178;-67
2021/01/27 09:18:28;;;;;;;2.37;2.27;;;19.40;39.90;;;;;;5052372;28;21007;-68
2021/01/27 09:20:54;;;;;;;2.77;2.60;;;19.50;40.00;;;;;;5054007;28;21058;-68
2021/01/27 09:23:21;;;;;;;2.20;2.10;;;19.50;40.00;;;;;;5055605;28;20481;-68
2021/01/27 09:25:49;;;;;;;1.93;1.83;;;19.50;39.70;;;;;;5051148;28;20494;-67
2021/01/27 09:28:20;;;;;;;2.13;1.93;;;19.60;39.70;;;;;;5041629;28;20533;-68
2021/01/27 09:30:46;;;;;;;3.40;2.70;;;19.60;39.70;;;;;;5022054;28;20477;-67
2021/01/27 09:33:13;;;;;;;1.93;1.83;;;19.60;39.60;;;;;;5050494;28;20541;-68
2021/01/27 09:35:40;;;;;;;2.33;2.13;;;19.60;39.60;;;;;;5050160;28;20478;-68
2021/01/27 09:38:08;;;;;;;2.40;2.30;;;19.60;39.70;;;;;;5053169;28;21541;-68
2021/01/27 09:40:36;;;;;;;3.47;1.93;;;19.60;39.70;;;;;;5049190;28;21195;-68
2021/01/27 09:43:04;;;;;;;2.10;2.00;;;19.70;39.60;;;;;;5052923;28;20481;-68
2021/01/27 09:45:31;;;;;;;2.20;2.03;;;19.80;39.50;;;;;;5053995;28;20488;-67
2021/01/27 09:47:58;;;;;;;2.63;2.50;;;19.80;39.30;;;;;;5056133;28;20484;-68
2021/01/27 09:50:24;;;;;;;2.20;2.10;;;19.80;39.20;;;;;;5050088;28;20482;-67
2021/01/27 09:52:52;;;;;;;2.17;2.07;;;19.80;39.00;;;;;;5052094;28;20735;-67
2021/01/27 09:55:18;;;;;;;1.90;1.80;;;19.80;39.10;;;;;;5041772;28;20484;-71
2021/01/27 09:57:44;;;;;;;2.77;2.57;;;19.80;39.20;;;;;;5051257;28;20603;-67
2021/01/27 10:00:13;;;;;;;2.50;2.27;;;19.80;39.60;;;;;;5053965;28;20489;-66
2021/01/27 10:02:39;;;;;;;3.80;2.10;;;19.70;39.50;;;;;;5045194;28;21209;-69
2021/01/27 10:05:33;;;;;;;2.30;2.20;;;19.70;39.50;;;;;;5050262;28;21119;-68
2021/01/27 10:07:59;;;;;;;2.33;2.20;;;19.70;39.30;;;;;;5051406;28;20485;-66
2021/01/27 10:10:25;;;;;;;1.63;1.53;;;19.70;39.30;;;;;;5051615;28;20473;-67
2021/01/27 10:12:55;;;;;;;2.30;2.10;;;19.70;40.10;;;;;;5050686;28;20482;-68
2021/01/27 10:15:26;;;;;;;1.90;1.80;;;19.70;39.20;;;;;;5050169;28;20490;-68
2021/01/27 10:17:58;;;;;;;2.20;1.73;;;19.70;39.30;;;;;;5052031;28;20485;-68
2021/01/27 10:20:26;;;;;;;2.10;2.00;;;19.70;39.50;;;;;;5051408;28;20492;-67
2021/01/27 10:22:55;;;;;;;3.33;1.97;;;19.70;39.40;;;;;;5036445;28;20478;-67
2021/01/27 10:25:30;;;;;;;1.80;1.70;;;19.70;39.50;;;;;;5052343;28;20556;-68
2021/01/27 10:28:08;;;;;;;2.87;1.83;;;19.70;39.40;;;;;;5052796;28;20503;-68
2021/01/27 10:30:44;;;;;;;2.20;1.83;;;19.70;39.30;;;;;;5048067;28;20863;-68
2021/01/27 10:33:31;;;;;;;1.70;1.60;;;19.70;39.30;;;;;;5052891;28;20500;-67
2021/01/27 10:35:58;;;;;;;1.83;1.73;;;19.70;39.30;;;;;;5050472;28;20834;-68
2021/01/27 10:38:24;;;;;;;1.57;1.57;;;19.70;39.40;;;;;;5052031;28;20535;-68
2021/01/27 10:41:09;;;;;;;1.60;1.60;;;19.70;39.30;;;;;;5049921;28;20560;-68
2021/01/27 10:43:35;;;;;;;1.93;1.83;;;19.70;39.20;;;;;;5048851;28;21174;-68
2021/01/27 10:46:17;;;;;;;1.43;1.43;;;19.70;39.20;;;;;;5041167;28;21139;-68
2021/01/27 10:48:43;;;;;;;1.90;1.80;;;19.70;39.30;;;;;;5048814;28;20529;-67
2021/01/27 10:51:10;;;;;;;1.43;1.20;;;19.70;39.30;;;;;;5047613;28;20490;-68
2021/01/27 10:53:37;;;;;;;1.90;1.80;;;19.70;39.30;;;;;;5039821;28;20482;-67
2021/01/27 10:56:04;;;;;;;1.90;1.80;;;19.70;39.30;;;;;;5052405;28;20852;-67
2021/01/27 10:58:30;;;;;;;1.90;1.70;;;19.60;39.20;;;;;;5046597;28;20913;-67
2021/01/27 11:00:56;;;;;;;2.40;2.27;;;19.60;39.20;;;;;;5050675;28;20477;-67
2021/01/27 11:03:23;;;;;;;1.90;1.63;;;19.60;39.20;;;;;;5051350;28;20494;-68
2021/01/27 11:05:50;;;;;;;2.30;1.93;;;19.60;39.20;;;;;;5054439;28;20490;-68
2021/01/27 11:08:25;;;;;;;2.50;1.87;;;19.70;39.40;;;;;;5054877;28;20512;-68
2021/01/27 11:10:51;;;;;;;1.87;1.77;;;19.70;39.30;;;;;;5044722;28;20505;-68
2021/01/27 11:13:17;;;;;;;2.00;1.90;;;19.70;39.40;;;;;;5054688;28;20481;-68
2021/01/27 11:15:43;;;;;;;1.47;1.37;;;19.60;39.30;;;;;;5051136;28;20481;-67
2021/01/27 11:18:10;;;;;;;4.40;1.60;;;19.60;39.40;;;;;;5043191;28;20575;-66
2021/01/27 11:20:37;;;;;;;1.70;1.60;;;19.70;39.50;;;;;;5054481;28;20486;-67
2021/01/27 11:23:03;;;;;;;4.77;1.87;;;19.60;39.50;;;;;;5051577;28;20550;-66
2021/01/27 11:25:29;;;;;;;1.70;1.60;;;19.70;39.40;;;;;;5054968;28;20490;-67
2021/01/27 11:27:55;;;;;;;1.37;1.27;;;19.70;39.40;;;;;;5055959;28;20504;-67
2021/01/27 11:30:23;;;;;;;1.60;1.50;;;19.70;39.40;;;;;;5051977;28;20870;-68
2021/01/27 11:32:49;;;;;;;1.97;1.87;;;19.60;39.40;;;;;;5043191;28;20472;-68
2021/01/27 11:35:16;;;;;;;2.03;1.93;;;19.60;39.30;;;;;;5060159;28;20473;-67
2021/01/27 11:37:43;;;;;;;1.53;1.43;;;19.60;39.20;;;;;;5052850;28;20485;-67
2021/01/27 11:40:10;;;;;;;1.50;1.40;;;19.70;39.40;;;;;;5056095;28;20497;-67
2021/01/27 11:42:36;;;;;;;4.63;1.13;;;19.60;39.30;;;;;;5043727;28;21605;-68
2021/01/27 11:45:03;;;;;;;1.50;1.50;;;19.60;39.40;;;;;;5051935;28;21055;-67
2021/01/27 11:47:29;;;;;;;1.47;1.37;;;19.60;39.50;;;;;;5053405;28;20478;-67
2021/01/27 11:49:55;;;;;;;2.03;1.53;;;19.60;39.60;;;;;;5056684;28;20478;-68
2021/01/27 11:52:22;;;;;;;1.40;1.40;;;19.70;39.60;;;;;;5052783;28;20545;-67
2021/01/27 11:54:50;;;;;;;1.37;1.27;;;19.70;40.30;;;;;;5053623;28;20994;-67
2021/01/27 11:57:16;;;;;;;1.57;1.47;;;19.70;39.50;;;;;;5037536;28;20489;-67
2021/01/27 11:59:42;;;;;;;1.50;1.40;;;19.70;39.50;;;;;;5048915;28;21622;-68
2021/01/27 12:02:08;;;;;;;1.40;1.40;;;19.70;39.50;;;;;;5041466;28;20490;-67
2021/01/27 12:04:35;;;;;;;1.47;1.47;;;19.70;39.50;;;;;;5046097;28;20491;-69
2021/01/27 12:07:01;;;;;;;1.33;1.30;;;19.60;39.50;;;;;;5045950;28;20487;-68
2021/01/27 12:09:28;;;;;;;1.40;1.40;;;19.70;39.60;;;;;;5039802;28;21008;-68
2021/01/27 12:11:55;;;;;;;2.10;1.33;;;19.70;39.60;;;;;;5066692;28;20490;-67
2021/01/27 12:14:21;;;;;;;1.63;1.27;;;19.70;39.50;;;;;;5054228;28;20508;-67
2021/01/27 12:16:47;;;;;;;5.50;1.43;;;19.70;40.40;;;;;;5048792;28;21524;-68
2021/01/27 12:19:14;;;;;;;1.00;1.00;;;19.70;39.50;;;;;;5049098;28;20485;-67
2021/01/27 12:21:40;;;;;;;1.40;1.30;;;19.80;39.70;;;;;;5048450;28;20490;-68
2021/01/27 12:24:06;;;;;;;1.20;1.20;;;19.70;39.60;;;;;;5052471;28;20490;-67
2021/01/27 12:26:33;;;;;;;1.00;0.90;;;19.70;39.50;;;;;;5049891;28;21118;-67
2021/01/27 12:29:00;;;;;;;1.17;1.17;;;19.70;39.60;;;;;;5050651;28;20473;-68
2021/01/27 12:31:26;;;;;;;2.20;1.50;;;19.60;39.40;;;;;;5044645;28;20475;-68
2021/01/27 12:33:52;;;;;;;0.97;0.97;;;19.70;39.40;;;;;;5051560;28;20486;-67
2021/01/27 12:36:18;;;;;;;1.57;1.47;;;19.70;39.40;;;;;;5048072;28;20488;-67
2021/01/27 12:38:44;;;;;;;1.10;1.10;;;19.70;39.50;;;;;;5050402;28;20950;-67
2021/01/27 12:41:10;;;;;;;1.70;1.60;;;19.70;39.40;;;;;;5050153;28;20486;-67
2021/01/27 12:43:37;;;;;;;1.27;1.17;;;19.70;39.30;;;;;;5052061;28;20471;-67
2021/01/27 12:46:04;;;;;;;1.77;1.67;;;19.70;39.30;;;;;;5049901;28;20486;-67
2021/01/27 12:48:30;;;;;;;1.23;1.20;;;19.60;39.30;;;;;;5053868;28;20493;-68
2021/01/27 12:50:56;;;;;;;1.73;1.50;;;19.60;39.60;;;;;;5051157;28;20483;-68
2021/01/27 12:53:22;;;;;;;1.50;1.50;;;19.60;39.70;;;;;;5047712;28;20501;-67
2021/01/27 12:55:48;;;;;;;1.00;0.93;;;19.60;39.80;;;;;;5046950;28;20486;-67
2021/01/27 12:58:15;;;;;;;1.70;1.27;;;19.60;39.80;;;;;;5053473;28;20477;-68
2021/01/27 13:00:41;;;;;;;1.10;1.00;;;19.50;39.50;;;;;;5048024;28;20482;-67
2021/01/27 13:03:08;;;;;;;1.10;1.10;;;19.50;39.40;;;;;;5048049;28;20485;-67
2021/01/27 13:05:35;;;;;;;1.37;1.10;;;19.60;39.50;;;;;;5034188;28;21178;-67